createdAt,value
2022-11-06T00:02:30.678Z,22.15
2022-11-06T00:04:55.454Z,20.92
2022-11-06T00:07:22.213Z,25.48
2022-11-06T00:09:48.867Z,25.10
2022-11-06T00:12:15.680Z,26.83
2022-11-06T00:14:42.530Z,23.05
2022-11-06T00:17:11.992Z,26.80
2022-11-06T00:19:40.116Z,26.92
2022-11-06T00:22:12.234Z,23.65
2022-11-06T00:24:38.909Z,18.15
2022-11-06T00:27:12.058Z,20.75
2022-11-06T00:29:42.160Z,21.67
2022-11-06T00:32:08.879Z,28.13
2022-11-06T00:34:38.232Z,28.25
2022-11-06T00:37:05.380Z,22.08
2022-11-06T00:39:32.037Z,25.30
2022-11-06T00:41:58.836Z,23.15
2022-11-06T00:44:28.693Z,22.80
2022-11-06T00:47:00.981Z,27.38
2022-11-06T00:49:28.460Z,23.85
2022-11-06T00:51:58.240Z,24.45
2022-11-06T00:54:26.621Z,23.30
2022-11-06T00:56:53.299Z,20.63
2022-11-06T00:59:20.419Z,21.08
2022-11-06T01:01:54.247Z,24.83
2022-11-06T01:04:23.589Z,26.98
2022-11-06T01:06:55.458Z,27.35
2022-11-06T01:09:26.053Z,24.13
2022-11-06T01:12:16.408Z,21.45
2022-11-06T01:14:44.064Z,21.48
2022-11-06T01:20:22.706Z,21.10
2022-11-06T01:22:51.280Z,20.42
2022-11-06T01:25:18.146Z,22.85
2022-11-06T01:27:45.488Z,18.38
2022-11-06T01:30:17.990Z,26.52
2022-11-06T01:32:47.619Z,27.23
2022-11-06T01:35:18.524Z,20.48
2022-11-06T01:37:45.456Z,29.90
2022-11-06T01:40:13.026Z,25.70
2022-11-06T01:42:39.788Z,22.75
2022-11-06T01:45:22.938Z,27.25
2022-11-06T01:47:51.929Z,25.88
2022-11-06T01:50:19.197Z,28.23
2022-11-06T01:52:49.998Z,24.38
2022-11-06T01:55:29.068Z,28.05
2022-11-06T01:57:59.905Z,27.60
2022-11-06T02:00:28.424Z,20.70
2022-11-06T02:02:58.125Z,25.67
2022-11-06T02:05:32.932Z,24.35
2022-11-06T02:08:02.232Z,26.25
2022-11-06T02:10:34.831Z,27.33
2022-11-06T02:13:29.852Z,24.23
2022-11-06T02:16:30.604Z,29.65
2022-11-06T02:19:28.039Z,27.02
2022-11-06T02:22:16.142Z,24.48
2022-11-06T02:24:58.466Z,23.85
2022-11-06T02:27:27.777Z,22.90
2022-11-06T02:30:10.526Z,27.88
2022-11-06T02:33:03.301Z,25.90
2022-11-06T02:35:58.922Z,24.88
2022-11-06T02:38:34.363Z,27.13
2022-11-06T02:41:06.227Z,23.88
2022-11-06T02:43:39.597Z,25.85
2022-11-06T02:46:15.198Z,24.58
2022-11-06T02:51:23.045Z,22.98
2022-11-06T02:53:49.902Z,29.10
2022-11-06T02:56:22.406Z,25.98
2022-11-06T02:58:57.257Z,25.15
2022-11-06T03:01:32.341Z,22.73
2022-11-06T03:04:04.950Z,23.40
2022-11-06T03:07:08.438Z,23.30
2022-11-06T03:09:35.868Z,24.00
2022-11-06T03:12:17.946Z,21.00
2022-11-06T03:14:54.309Z,22.75
2022-11-06T03:17:39.796Z,24.83
2022-11-06T03:20:38.273Z,24.13
2022-11-06T03:23:41.116Z,19.58
2022-11-06T03:26:27.224Z,19.73
2022-11-06T03:31:47.433Z,22.85
2022-11-06T03:34:28.027Z,18.55
2022-11-06T03:37:05.626Z,25.63
2022-11-06T03:39:37.073Z,21.85
2022-11-06T03:42:14.150Z,23.02
2022-11-06T03:44:45.928Z,24.65
2022-11-06T03:47:24.412Z,26.00
2022-11-06T03:50:05.784Z,21.50
2022-11-06T03:52:49.765Z,25.75
2022-11-06T03:55:19.781Z,19.77
2022-11-06T03:57:48.759Z,23.00
2022-11-06T04:00:15.802Z,22.42
2022-11-06T04:02:48.181Z,23.20
2022-11-06T04:05:20.573Z,24.60
2022-11-06T04:07:51.185Z,23.65
2022-11-06T04:10:18.186Z,23.27
2022-11-06T04:12:46.774Z,18.80
2022-11-06T04:15:18.456Z,24.98
2022-11-06T04:17:45.197Z,23.95
2022-11-06T04:20:23.380Z,21.08
2022-11-06T04:23:00.952Z,25.10
2022-11-06T04:26:03.217Z,28.05
2022-11-06T04:28:36.100Z,23.50
2022-11-06T04:31:17.878Z,22.98
2022-11-06T04:34:17.079Z,22.75
2022-11-06T04:36:52.737Z,24.42
2022-11-06T04:39:38.207Z,23.95
2022-11-06T04:42:38.208Z,22.75
2022-11-06T04:45:10.635Z,21.83
2022-11-06T04:47:38.637Z,23.00
2022-11-06T04:50:07.806Z,28.80
2022-11-06T04:52:37.044Z,25.42
2022-11-06T04:55:04.113Z,27.33
2022-11-06T04:57:30.841Z,21.75
2022-11-06T04:59:58.115Z,23.48
2022-11-06T05:02:24.916Z,24.63
2022-11-06T05:04:51.965Z,23.85
2022-11-06T05:07:18.738Z,24.92
2022-11-06T05:09:45.396Z,22.80
2022-11-06T05:12:12.079Z,26.02
2022-11-06T05:14:38.718Z,20.30
2022-11-06T05:17:05.425Z,22.52
2022-11-06T05:19:32.078Z,19.60
2022-11-06T05:21:58.714Z,24.20
2022-11-06T05:24:25.460Z,23.02
2022-11-06T05:26:57.811Z,22.52
2022-11-06T05:29:25.952Z,22.23
2022-11-06T05:31:52.581Z,24.92
2022-11-06T05:34:19.257Z,20.40
2022-11-06T05:36:45.884Z,22.20
2022-11-06T05:39:12.519Z,22.90
2022-11-06T05:41:39.300Z,26.50
2022-11-06T05:44:05.979Z,20.88
2022-11-06T05:46:48.210Z,20.88
2022-11-06T05:49:15.700Z,19.92
2022-11-06T05:51:42.351Z,22.35
2022-11-06T05:54:08.997Z,22.35
2022-11-06T05:56:35.635Z,20.75
2022-11-06T05:59:02.395Z,22.02
2022-11-06T06:01:29.090Z,21.27
2022-11-06T06:03:55.830Z,24.60
2022-11-06T06:06:22.534Z,24.23
2022-11-06T06:08:49.099Z,21.60
2022-11-06T06:11:15.816Z,21.77
2022-11-06T06:13:42.403Z,22.17
2022-11-06T06:16:08.990Z,23.58
2022-11-06T06:18:35.705Z,31.00
2022-11-06T06:21:02.287Z,20.77
2022-11-06T06:23:28.940Z,23.98
2022-11-06T06:25:57.296Z,26.08
2022-11-06T06:28:23.930Z,23.05
2022-11-06T06:30:50.596Z,26.08
2022-11-06T06:33:17.296Z,23.33
2022-11-06T06:35:44.112Z,23.20
2022-11-06T06:38:11.086Z,24.88
2022-11-06T06:40:37.999Z,24.40
2022-11-06T06:43:04.597Z,24.25
2022-11-06T06:45:31.299Z,27.45
2022-11-06T06:48:03.296Z,26.15
2022-11-06T06:50:30.039Z,21.95
2022-11-06T06:52:58.567Z,26.05
2022-11-06T06:55:25.805Z,21.63
2022-11-06T06:57:59.639Z,22.20
2022-11-06T07:00:26.821Z,24.10
2022-11-06T07:02:53.501Z,21.52
2022-11-06T07:05:20.544Z,25.55
2022-11-06T07:07:47.250Z,20.92
2022-11-06T07:10:13.965Z,23.02
2022-11-06T07:12:40.661Z,23.83
2022-11-06T07:15:08.316Z,23.27
2022-11-06T07:17:35.024Z,26.42
2022-11-06T07:20:01.828Z,20.15
2022-11-06T07:22:35.469Z,21.50
2022-11-06T07:25:03.599Z,21.52
2022-11-06T07:27:30.478Z,23.02
2022-11-06T07:29:57.140Z,21.45
2022-11-06T07:32:23.835Z,23.27
2022-11-06T07:34:50.573Z,22.33
2022-11-06T07:37:17.238Z,21.83
2022-11-06T07:39:44.300Z,23.20
2022-11-06T07:42:10.983Z,22.65
2022-11-06T07:45:10.112Z,21.77
2022-11-06T07:47:37.189Z,22.23
2022-11-06T07:50:04.302Z,22.25
2022-11-06T07:52:31.157Z,24.77
2022-11-06T07:54:57.822Z,30.80
2022-11-06T07:57:24.563Z,24.77
2022-11-06T07:59:51.365Z,22.40
2022-11-06T08:02:18.323Z,19.70
2022-11-06T08:04:44.954Z,21.90
2022-11-06T08:07:11.557Z,19.58
2022-11-06T08:09:38.213Z,22.35
2022-11-06T08:12:05.420Z,22.65
2022-11-06T08:14:32.067Z,23.95
2022-11-06T08:16:58.763Z,24.65
2022-11-06T08:19:25.666Z,22.05
2022-11-06T08:21:52.411Z,22.48
2022-11-06T08:24:21.896Z,24.45
2022-11-06T08:26:49.154Z,21.35
2022-11-06T08:29:16.148Z,22.13
2022-11-06T08:31:42.897Z,26.90
2022-11-06T08:34:09.759Z,20.90
2022-11-06T08:36:49.664Z,22.58
2022-11-06T08:39:16.711Z,21.33
2022-11-06T08:41:43.371Z,21.80
2022-11-06T08:44:10.045Z,22.92
2022-11-06T08:46:36.682Z,27.63
2022-11-06T08:49:03.455Z,20.88
2022-11-06T08:51:30.079Z,27.52
2022-11-06T08:53:56.779Z,22.27
2022-11-06T08:56:23.670Z,22.35
2022-11-06T08:58:55.397Z,20.50
2022-11-06T09:01:22.572Z,21.23
2022-11-06T09:03:51.496Z,22.98
2022-11-06T09:06:18.306Z,19.10
2022-11-06T09:08:45.105Z,23.98
2022-11-06T09:11:11.956Z,20.35
2022-11-06T09:13:39.134Z,20.15
2022-11-06T09:16:10.017Z,20.83
2022-11-06T09:18:42.412Z,19.08
2022-11-06T09:21:09.094Z,15.30
2022-11-06T09:23:35.782Z,17.17
2022-11-06T09:26:02.543Z,20.60
2022-11-06T09:28:29.237Z,19.08
2022-11-06T09:30:56.537Z,18.05
2022-11-06T09:33:23.373Z,19.48
2022-11-06T09:35:50.012Z,19.40
2022-11-06T09:38:16.654Z,16.52
2022-11-06T09:40:56.300Z,22.52
2022-11-06T09:46:32.244Z,17.98
2022-11-06T09:49:20.595Z,14.20
2022-11-06T09:52:26.469Z,16.98
2022-11-06T09:55:01.748Z,14.75
2022-11-06T09:57:34.106Z,15.55
2022-11-06T10:00:02.554Z,15.70
2022-11-06T10:02:48.686Z,13.38
2022-11-06T10:07:43.988Z,15.73
2022-11-06T10:10:27.654Z,17.75
2022-11-06T10:13:21.368Z,14.68
2022-11-06T10:15:56.218Z,17.52
2022-11-06T10:18:55.037Z,18.50
2022-11-06T10:21:24.821Z,17.17
2022-11-06T10:24:04.371Z,16.67
2022-11-06T10:26:52.170Z,15.85
2022-11-06T10:29:48.624Z,14.38
2022-11-06T10:32:30.532Z,14.55
2022-11-06T10:35:19.309Z,59.88
2022-11-06T10:37:48.991Z,20.98
2022-11-06T10:40:23.832Z,13.85
2022-11-06T10:43:01.070Z,14.63
2022-11-06T10:45:29.345Z,15.20
2022-11-06T10:48:19.687Z,16.30
2022-11-06T10:50:55.931Z,16.77
2022-11-06T10:53:41.762Z,12.82
2022-11-06T10:56:25.247Z,11.63
2022-11-06T10:58:53.050Z,16.20
2022-11-06T11:01:19.950Z,13.20
2022-11-06T11:03:47.654Z,12.80
2022-11-06T11:06:14.405Z,15.25
2022-11-06T11:08:44.217Z,13.32
2022-11-06T11:11:14.054Z,13.38
2022-11-06T11:13:42.081Z,12.55
2022-11-06T11:16:17.702Z,15.25
2022-11-06T11:18:45.744Z,15.30
2022-11-06T11:21:28.045Z,14.70
2022-11-06T11:24:00.629Z,12.00
2022-11-06T11:26:29.898Z,13.05
2022-11-06T11:28:58.796Z,13.23
2022-11-06T11:31:33.105Z,13.60
2022-11-06T11:34:20.507Z,15.65
2022-11-06T11:37:07.612Z,10.55
2022-11-06T11:39:43.340Z,13.18
2022-11-06T11:44:44.367Z,14.45
2022-11-06T11:47:24.353Z,13.82
2022-11-06T11:49:50.968Z,16.73
2022-11-06T11:52:21.505Z,11.60
2022-11-06T11:54:52.732Z,14.20
2022-11-06T11:57:25.337Z,14.38
2022-11-06T12:00:03.624Z,14.60
2022-11-06T12:02:40.205Z,11.73
2022-11-06T12:05:22.849Z,15.52
2022-11-06T12:07:55.263Z,11.18
2022-11-06T12:10:35.262Z,15.57
2022-11-06T12:13:13.501Z,13.07
2022-11-06T12:16:03.414Z,12.23
2022-11-06T12:18:33.207Z,11.27
2022-11-06T12:21:27.964Z,10.90
2022-11-06T12:23:59.702Z,12.18
2022-11-06T12:26:30.293Z,10.85
2022-11-06T12:29:14.765Z,11.25
2022-11-06T12:32:02.655Z,11.82
2022-11-06T12:34:42.311Z,14.30
2022-11-06T12:37:48.436Z,7.82
2022-11-06T12:40:50.107Z,10.13
2022-11-06T12:43:40.264Z,10.90
2022-11-06T12:46:19.389Z,9.90
2022-11-06T12:49:04.261Z,14.68
2022-11-06T12:51:47.795Z,14.07
2022-11-06T12:54:43.097Z,12.27
2022-11-06T12:57:44.061Z,12.90
2022-11-06T13:00:16.789Z,11.05
2022-11-06T13:03:12.133Z,12.82
2022-11-06T13:06:12.811Z,10.43
2022-11-06T13:09:12.822Z,9.48
2022-11-06T13:11:58.074Z,10.07
2022-11-06T13:14:42.427Z,7.45
2022-11-06T13:17:37.026Z,10.82
2022-11-06T13:20:15.583Z,8.15
2022-11-06T13:22:51.300Z,8.88
2022-11-06T13:28:06.420Z,7.30
2022-11-06T13:30:34.594Z,9.65
2022-11-06T13:33:22.228Z,9.52
2022-11-06T13:35:49.186Z,8.98
2022-11-06T13:38:22.095Z,8.07
2022-11-06T13:40:53.012Z,9.50
2022-11-06T13:43:21.872Z,13.15
2022-11-06T13:45:53.151Z,11.02
2022-11-06T13:48:33.231Z,10.30
2022-11-06T13:51:28.657Z,16.02
2022-11-06T13:54:06.227Z,11.65
2022-11-06T13:56:54.841Z,11.52
2022-11-06T13:59:40.204Z,9.43
2022-11-06T14:02:24.956Z,9.07
2022-11-06T14:05:29.465Z,9.25
2022-11-06T14:07:59.089Z,9.30
2022-11-06T14:10:34.006Z,9.10
2022-11-06T14:13:02.102Z,11.37
2022-11-06T14:15:34.397Z,8.68
2022-11-06T14:18:01.750Z,10.75
2022-11-06T14:20:37.210Z,13.60
2022-11-06T14:23:28.923Z,12.75
2022-11-06T14:26:13.402Z,11.88
2022-11-06T14:28:42.887Z,9.82
2022-11-06T14:31:13.990Z,11.45
2022-11-06T14:33:41.380Z,10.88
2022-11-06T14:36:36.615Z,11.50
2022-11-06T14:39:08.387Z,7.32
2022-11-06T14:41:35.107Z,10.15
2022-11-06T14:44:39.850Z,11.15
2022-11-06T14:47:19.538Z,8.32
2022-11-06T14:49:51.837Z,9.48
2022-11-06T14:52:20.081Z,11.45
2022-11-06T14:54:58.444Z,12.55
2022-11-06T14:57:52.282Z,10.02
2022-11-06T15:00:36.920Z,10.80
2022-11-06T15:03:06.615Z,9.68
2022-11-06T15:05:34.713Z,10.82
2022-11-06T15:08:05.319Z,10.75
2022-11-06T15:10:53.395Z,7.93
2022-11-06T15:13:20.152Z,9.80
2022-11-06T15:15:52.083Z,11.73
2022-11-06T15:18:21.198Z,10.40
2022-11-06T15:20:52.773Z,8.63
2022-11-06T15:23:32.689Z,11.40
2022-11-06T15:26:19.819Z,10.98
2022-11-06T15:29:00.018Z,9.75
2022-11-06T15:31:29.548Z,12.43
2022-11-06T15:34:01.262Z,10.23
2022-11-06T15:36:32.284Z,11.13
2022-11-06T15:38:58.943Z,14.43
2022-11-06T15:41:26.913Z,11.02
2022-11-06T15:43:55.722Z,14.95
2022-11-06T15:46:27.857Z,12.43
2022-11-06T15:49:07.898Z,11.52
2022-11-06T15:51:39.156Z,15.35
2022-11-06T15:54:06.903Z,10.05
2022-11-06T15:56:35.448Z,11.05
2022-11-06T15:59:20.158Z,12.90
2022-11-06T16:01:48.494Z,13.48
2022-11-06T16:04:26.328Z,15.50
2022-11-06T16:06:53.978Z,14.65
2022-11-06T16:09:24.955Z,10.02
2022-11-06T16:11:52.782Z,16.52
2022-11-06T16:14:20.849Z,16.02
2022-11-06T16:16:56.060Z,12.73
2022-11-06T16:19:33.511Z,13.32
2022-11-06T16:22:14.040Z,14.82
2022-11-06T16:24:47.968Z,15.10
2022-11-06T16:27:15.340Z,16.83
2022-11-06T16:29:52.535Z,11.13
2022-11-06T16:32:22.904Z,15.00
2022-11-06T16:34:50.001Z,14.30
2022-11-06T16:37:16.563Z,13.68
2022-11-06T16:39:50.191Z,10.13
2022-11-06T16:42:35.559Z,12.90
2022-11-06T16:45:08.352Z,13.07
2022-11-06T16:47:35.116Z,14.68
2022-11-06T16:50:01.961Z,17.77
2022-11-06T16:52:31.731Z,15.50
2022-11-06T16:55:21.024Z,12.77
2022-11-06T16:57:56.470Z,18.65
2022-11-06T17:00:24.634Z,16.38
2022-11-06T17:02:54.395Z,17.70
2022-11-06T17:05:26.796Z,17.02
2022-11-06T17:08:22.434Z,15.50
2022-11-06T17:11:18.857Z,16.67
2022-11-06T17:13:46.010Z,14.15
2022-11-06T17:16:15.610Z,18.05
2022-11-06T17:18:43.767Z,15.35
2022-11-06T17:21:16.775Z,14.02
2022-11-06T17:23:44.834Z,18.75
2022-11-06T17:26:16.608Z,13.95
2022-11-06T17:28:43.386Z,17.95
2022-11-06T17:31:15.120Z,17.55
2022-11-06T17:33:42.544Z,21.17
2022-11-06T17:36:18.484Z,18.13
2022-11-06T17:38:46.006Z,18.15
2022-11-06T17:41:12.783Z,21.38
2022-11-06T17:43:39.884Z,17.60
2022-11-06T17:46:06.491Z,15.73
2022-11-06T17:48:34.401Z,16.02
2022-11-06T17:51:01.047Z,14.93
2022-11-06T17:53:27.751Z,18.27
2022-11-06T17:55:54.413Z,18.00
2022-11-06T17:58:21.109Z,15.52
2022-11-06T18:00:47.738Z,13.90
2022-11-06T18:03:22.766Z,17.50
2022-11-06T18:05:52.001Z,15.32
2022-11-06T18:08:18.629Z,16.25
2022-11-06T18:10:50.291Z,14.82
2022-11-06T18:13:16.918Z,17.15
2022-11-06T18:15:43.513Z,16.30
2022-11-06T18:18:10.227Z,16.67
2022-11-06T18:20:36.956Z,14.65
2022-11-06T18:23:03.824Z,16.20
2022-11-06T18:25:30.481Z,14.50
2022-11-06T18:28:02.416Z,15.68
2022-11-06T18:30:30.568Z,15.05
2022-11-06T18:32:58.397Z,15.77
2022-11-06T18:35:25.189Z,15.30
2022-11-06T18:37:51.811Z,14.75
2022-11-06T18:40:18.537Z,14.27
2022-11-06T18:42:45.157Z,14.02
2022-11-06T18:45:11.796Z,16.38
2022-11-06T18:47:38.423Z,13.93
2022-11-06T18:50:05.511Z,14.98
2022-11-06T18:52:55.729Z,12.70
2022-11-06T18:55:18.996Z,17.98
2022-11-06T18:57:45.587Z,15.68
2022-11-06T19:00:13.060Z,19.35
2022-11-06T19:02:40.396Z,17.70
2022-11-06T19:05:07.576Z,16.65
2022-11-06T19:07:34.303Z,17.50
2022-11-06T19:10:01.001Z,16.88
2022-11-06T19:12:27.696Z,16.33
2022-11-06T19:14:54.341Z,21.30
2022-11-06T19:17:20.971Z,18.00
2022-11-06T19:19:47.772Z,19.20
2022-11-06T19:22:14.395Z,17.75
2022-11-06T19:24:41.041Z,16.20
2022-11-06T19:27:07.671Z,16.58
2022-11-06T19:29:35.164Z,17.90
2022-11-06T19:32:04.568Z,19.42
2022-11-06T19:34:34.217Z,18.30
2022-11-06T19:37:04.710Z,18.25
2022-11-06T19:39:31.330Z,21.75
2022-11-06T19:41:57.969Z,20.20
2022-11-06T19:44:24.571Z,19.27
2022-11-06T19:46:52.224Z,24.10
2022-11-06T19:49:18.824Z,18.95
2022-11-06T19:51:45.460Z,18.42
2022-11-06T19:54:12.124Z,19.83
2022-11-06T19:57:29.392Z,18.42
2022-11-06T19:59:25.589Z,19.80
2022-11-06T20:01:52.381Z,19.95
2022-11-06T20:04:19.045Z,23.08
2022-11-06T20:06:45.681Z,20.23
2022-11-06T20:09:12.295Z,23.75
2022-11-06T20:11:38.933Z,22.77
2022-11-06T20:14:05.725Z,20.98
2022-11-06T20:16:32.397Z,24.52
2022-11-06T20:18:59.560Z,25.20
2022-11-06T20:21:27.661Z,23.80
2022-11-06T20:23:57.703Z,22.58
2022-11-06T20:26:24.426Z,22.05
2022-11-06T20:28:51.189Z,22.92
2022-11-06T20:31:19.057Z,22.02
2022-11-06T20:33:45.689Z,23.13
2022-11-06T20:36:15.765Z,25.17
2022-11-06T20:38:42.605Z,23.83
2022-11-06T20:41:09.641Z,22.48
2022-11-06T20:43:36.306Z,21.33
2022-11-06T20:46:03.998Z,22.63
2022-11-06T20:48:32.603Z,23.55
2022-11-06T20:51:06.343Z,23.63
2022-11-06T20:53:33.608Z,23.15
2022-11-06T20:56:03.168Z,26.15
2022-11-06T20:58:30.670Z,24.38
2022-11-06T21:01:16.938Z,24.55
2022-11-06T21:03:43.912Z,24.67
2022-11-06T21:06:10.695Z,26.98
2022-11-06T21:08:38.541Z,26.00
2022-11-06T21:11:08.196Z,23.80
2022-11-06T21:13:34.766Z,31.67
2022-11-06T21:16:04.785Z,26.02
2022-11-06T21:18:34.568Z,26.38
2022-11-06T21:21:03.279Z,26.65
2022-11-06T21:23:30.251Z,28.40
2022-11-06T21:25:56.992Z,25.70
2022-11-06T21:28:23.667Z,25.38
2022-11-06T21:30:50.426Z,26.30
2022-11-06T21:33:17.039Z,27.45
2022-11-06T21:35:43.657Z,29.17
2022-11-06T21:38:10.283Z,28.25
2022-11-06T21:40:38.943Z,34.20
2022-11-06T21:43:05.538Z,27.88
2022-11-06T21:45:33.670Z,27.20
2022-11-06T21:48:00.467Z,27.20
2022-11-06T21:50:29.691Z,28.60
2022-11-06T21:52:56.743Z,30.83
2022-11-06T21:55:23.364Z,29.63
2022-11-06T21:57:50.034Z,29.15
2022-11-06T22:00:16.948Z,28.77
2022-11-06T22:02:43.823Z,28.48
2022-11-06T22:05:10.985Z,33.65
2022-11-06T22:07:37.719Z,28.60
2022-11-06T22:10:04.721Z,27.95
2022-11-06T22:12:31.341Z,29.92
2022-11-06T22:14:57.954Z,31.77
2022-11-06T22:17:24.619Z,29.42
2022-11-06T22:19:51.246Z,29.52
2022-11-06T22:22:17.841Z,31.90
2022-11-06T22:24:44.466Z,31.45
2022-11-06T22:27:11.077Z,30.60
2022-11-06T22:29:37.717Z,30.23
2022-11-06T22:32:04.635Z,30.95
2022-11-06T22:34:31.256Z,30.25
2022-11-06T22:36:57.871Z,30.85
2022-11-06T22:39:24.548Z,28.70
2022-11-06T22:41:51.153Z,29.50
2022-11-06T22:44:18.145Z,30.63
2022-11-06T22:46:44.898Z,30.42
2022-11-06T22:49:11.558Z,28.70
2022-11-06T22:51:38.245Z,30.45
2022-11-06T22:54:05.385Z,29.50
2022-11-06T22:56:32.826Z,28.17
2022-11-06T22:59:02.228Z,29.35
2022-11-06T23:01:31.122Z,28.83
2022-11-06T23:04:07.032Z,27.95
2022-11-06T23:06:33.975Z,30.00
2022-11-06T23:09:00.846Z,28.75
2022-11-06T23:11:29.098Z,29.67
2022-11-06T23:13:56.081Z,27.98
2022-11-06T23:16:25.121Z,31.40
2022-11-06T23:18:51.790Z,28.02
2022-11-06T23:21:19.080Z,28.80
2022-11-06T23:23:46.032Z,30.52
2022-11-06T23:26:17.972Z,30.38
2022-11-06T23:28:46.183Z,26.58
2022-11-06T23:31:14.860Z,30.75
2022-11-06T23:33:42.253Z,27.55
2022-11-06T23:36:12.260Z,29.63
2022-11-06T23:38:39.389Z,30.77
2022-11-06T23:41:14.295Z,30.73
2022-11-06T23:43:40.899Z,29.43
2022-11-06T23:46:07.530Z,30.25
2022-11-06T23:48:34.254Z,28.08
2022-11-06T23:51:00.947Z,30.83
2022-11-06T23:53:27.795Z,30.95
2022-11-06T23:55:54.404Z,27.63
2022-11-06T23:58:21.034Z,29.30
